sensor_id;sensor_type;location;lat;lon;timestamp;pressure;altitude;pressure_sealevel;temperature;humidity
20455;BME280;10386;54.314;10.022;2023-02-22T00:01:33;101351.00;;;6.49;100.00
20455;BME280;10386;54.314;10.022;2023-02-22T00:04:02;101346.97;;;6.39;100.00
20455;BME280;10386;54.314;10.022;2023-02-22T00:06:30;101343.84;;;6.48;100.00
20455;BME280;10386;54.314;10.022;2023-02-22T00:08:57;101335.63;;;6.51;100.00
20455;BME280;10386;54.314;10.022;2023-02-22T00:11:25;101334.63;;;6.53;100.00
20455;BME280;10386;54.314;10.022;2023-02-22T00:13:53;101332.94;;;6.51;100.00
20455;BME280;10386;54.314;10.022;2023-02-22T00:16:24;101333.69;;;6.54;100.00
20455;BME280;10386;54.314;10.022;2023-02-22T00:18:52;101333.53;;;6.57;100.00
20455;BME280;10386;54.314;10.022;2023-02-22T00:21:20;101336.13;;;6.40;100.00
20455;BME280;10386;54.314;10.022;2023-02-22T00:23:47;101329.94;;;6.38;100.00
20455;BME280;10386;54.314;10.022;2023-02-22T00:26:19;101323.84;;;6.53;100.00
20455;BME280;10386;54.314;10.022;2023-02-22T00:28:51;101314.66;;;6.57;100.00
20455;BME280;10386;54.314;10.022;2023-02-22T00:31:18;101320.69;;;6.62;100.00
20455;BME280;10386;54.314;10.022;2023-02-22T00:33:46;101314.13;;;6.68;100.00
20455;BME280;10386;54.314;10.022;2023-02-22T00:36:13;101297.06;;;6.67;100.00
20455;BME280;10386;54.314;10.022;2023-02-22T00:38:40;101297.63;;;6.74;100.00
20455;BME280;10386;54.314;10.022;2023-02-22T00:41:08;101289.41;;;6.77;100.00
20455;BME280;10386;54.314;10.022;2023-02-22T00:43:35;101285.53;;;6.82;100.00
20455;BME280;10386;54.314;10.022;2023-02-22T00:46:02;101282.84;;;6.82;100.00
20455;BME280;10386;54.314;10.022;2023-02-22T00:48:29;101279.03;;;6.86;100.00
20455;BME280;10386;54.314;10.022;2023-02-22T00:50:55;101288.03;;;6.86;100.00
20455;BME280;10386;54.314;10.022;2023-02-22T00:53:23;101267.00;;;6.93;100.00
20455;BME280;10386;54.314;10.022;2023-02-22T00:55:51;101263.34;;;6.94;100.00
20455;BME280;10386;54.314;10.022;2023-02-22T00:58:18;101266.66;;;6.82;100.00
20455;BME280;10386;54.314;10.022;2023-02-22T01:00:45;101270.09;;;6.85;100.00
20455;BME280;10386;54.314;10.022;2023-02-22T01:03:14;101267.59;;;6.81;100.00
20455;BME280;10386;54.314;10.022;2023-02-22T01:05:41;101254.53;;;6.90;100.00
20455;BME280;10386;54.314;10.022;2023-02-22T01:08:11;101254.75;;;6.86;100.00
20455;BME280;10386;54.314;10.022;2023-02-22T01:10:38;101257.31;;;6.89;100.00
20455;BME280;10386;54.314;10.022;2023-02-22T01:13:07;101246.63;;;7.04;100.00
20455;BME280;10386;54.314;10.022;2023-02-22T01:15:36;101248.69;;;6.99;100.00
20455;BME280;10386;54.314;10.022;2023-02-22T01:18:04;101253.44;;;6.94;100.00
20455;BME280;10386;54.314;10.022;2023-02-22T01:20:31;101250.25;;;6.86;100.00
20455;BME280;10386;54.314;10.022;2023-02-22T01:22:59;101248.78;;;6.79;100.00
20455;BME280;10386;54.314;10.022;2023-02-22T01:25:29;101257.81;;;6.78;100.00
20455;BME280;10386;54.314;10.022;2023-02-22T01:27:56;101255.66;;;6.68;100.00
20455;BME280;10386;54.314;10.022;2023-02-22T01:30:26;101268.94;;;6.54;100.00
20455;BME280;10386;54.314;10.022;2023-02-22T01:32:54;101260.47;;;6.62;100.00
20455;BME280;10386;54.314;10.022;2023-02-22T01:35:24;101246.22;;;6.77;100.00
20455;BME280;10386;54.314;10.022;2023-02-22T01:37:51;101257.31;;;6.71;100.00
20455;BME280;10386;54.314;10.022;2023-02-22T01:40:29;101255.41;;;6.73;100.00
20455;BME280;10386;54.314;10.022;2023-02-22T01:42:58;101249.22;;;6.71;100.00
20455;BME280;10386;54.314;10.022;2023-02-22T01:48:14;101235.19;;;6.99;100.00
20455;BME280;10386;54.314;10.022;2023-02-22T01:53:24;101235.50;;;6.93;100.00
20455;BME280;10386;54.314;10.022;2023-02-22T01:55:53;101230.09;;;6.93;100.00
20455;BME280;10386;54.314;10.022;2023-02-22T01:58:21;101232.25;;;7.04;100.00
20455;BME280;10386;54.314;10.022;2023-02-22T02:00:48;101229.78;;;6.99;100.00
20455;BME280;10386;54.314;10.022;2023-02-22T02:03:25;101227.88;;;7.01;100.00
20455;BME280;10386;54.314;10.022;2023-02-22T02:05:56;101232.50;;;6.99;100.00
20455;BME280;10386;54.314;10.022;2023-02-22T02:08:32;101220.00;;;6.97;100.00
20455;BME280;10386;54.314;10.022;2023-02-22T02:11:06;101226.84;;;7.04;100.00
20455;BME280;10386;54.314;10.022;2023-02-22T02:13:39;101225.88;;;7.05;100.00
20455;BME280;10386;54.314;10.022;2023-02-22T02:16:07;101212.06;;;7.11;100.00
20455;BME280;10386;54.314;10.022;2023-02-22T02:18:33;101201.84;;;7.17;100.00
20455;BME280;10386;54.314;10.022;2023-02-22T02:27:01;101202.25;;;7.27;100.00
20455;BME280;10386;54.314;10.022;2023-02-22T02:35:19;101194.00;;;7.30;100.00
20455;BME280;10386;54.314;10.022;2023-02-22T02:38:03;101191.03;;;7.34;100.00
20455;BME280;10386;54.314;10.022;2023-02-22T02:40:40;101185.81;;;7.31;100.00
20455;BME280;10386;54.314;10.022;2023-02-22T02:45:48;101191.69;;;7.22;100.00
20455;BME280;10386;54.314;10.022;2023-02-22T02:48:20;101195.28;;;7.23;100.00
20455;BME280;10386;54.314;10.022;2023-02-22T02:50:52;101190.91;;;7.20;100.00
20455;BME280;10386;54.314;10.022;2023-02-22T02:53:26;101188.19;;;7.20;100.00
20455;BME280;10386;54.314;10.022;2023-02-22T02:55:57;101184.53;;;7.21;100.00
20455;BME280;10386;54.314;10.022;2023-02-22T02:58:25;101184.38;;;7.24;100.00
20455;BME280;10386;54.314;10.022;2023-02-22T03:00:56;101178.91;;;7.26;100.00
20455;BME280;10386;54.314;10.022;2023-02-22T03:03:42;101180.25;;;7.17;100.00
20455;BME280;10386;54.314;10.022;2023-02-22T03:07:02;101181.50;;;7.27;100.00
20455;BME280;10386;54.314;10.022;2023-02-22T03:14:40;101162.22;;;7.35;100.00
20455;BME280;10386;54.314;10.022;2023-02-22T03:17:58;101155.59;;;7.40;100.00
20455;BME280;10386;54.314;10.022;2023-02-22T03:20:57;101158.56;;;7.36;100.00
20455;BME280;10386;54.314;10.022;2023-02-22T03:23:32;101143.06;;;7.39;100.00
20455;BME280;10386;54.314;10.022;2023-02-22T03:26:04;101137.31;;;7.45;100.00
20455;BME280;10386;54.314;10.022;2023-02-22T03:28:34;101139.41;;;7.40;100.00
20455;BME280;10386;54.314;10.022;2023-02-22T03:31:18;101140.19;;;7.42;100.00
20455;BME280;10386;54.314;10.022;2023-02-22T03:34:07;101131.69;;;7.50;100.00
20455;BME280;10386;54.314;10.022;2023-02-22T03:36:44;101134.41;;;7.50;100.00
20455;BME280;10386;54.314;10.022;2023-02-22T03:39:15;101130.00;;;7.47;100.00
20455;BME280;10386;54.314;10.022;2023-02-22T03:41:48;101126.69;;;7.42;100.00
20455;BME280;10386;54.314;10.022;2023-02-22T03:44:20;101136.63;;;7.42;100.00
20455;BME280;10386;54.314;10.022;2023-02-22T03:46:49;101131.31;;;7.40;100.00
20455;BME280;10386;54.314;10.022;2023-02-22T03:49:30;101133.16;;;7.40;100.00
20455;BME280;10386;54.314;10.022;2023-02-22T03:52:02;101122.19;;;7.43;100.00
20455;BME280;10386;54.314;10.022;2023-02-22T03:54:30;101129.66;;;7.38;100.00
20455;BME280;10386;54.314;10.022;2023-02-22T03:57:03;101113.03;;;7.45;100.00
20455;BME280;10386;54.314;10.022;2023-02-22T03:59:32;101100.63;;;7.41;100.00
20455;BME280;10386;54.314;10.022;2023-02-22T04:01:59;101106.63;;;7.31;100.00
20455;BME280;10386;54.314;10.022;2023-02-22T04:04:25;101114.47;;;7.35;100.00
20455;BME280;10386;54.314;10.022;2023-02-22T04:06:53;101106.03;;;7.41;100.00
20455;BME280;10386;54.314;10.022;2023-02-22T04:09:20;101107.00;;;7.40;100.00
20455;BME280;10386;54.314;10.022;2023-02-22T04:11:47;101097.94;;;7.41;100.00
20455;BME280;10386;54.314;10.022;2023-02-22T04:14:13;101102.38;;;7.42;100.00
20455;BME280;10386;54.314;10.022;2023-02-22T04:16:40;101105.25;;;7.39;100.00
20455;BME280;10386;54.314;10.022;2023-02-22T04:19:07;101104.28;;;7.40;100.00
20455;BME280;10386;54.314;10.022;2023-02-22T04:21:34;101097.94;;;7.41;100.00
20455;BME280;10386;54.314;10.022;2023-02-22T04:24:00;101096.28;;;7.39;100.00
20455;BME280;10386;54.314;10.022;2023-02-22T04:26:27;101101.53;;;7.42;100.00
20455;BME280;10386;54.314;10.022;2023-02-22T04:28:54;101104.22;;;7.42;100.00
20455;BME280;10386;54.314;10.022;2023-02-22T04:31:21;101091.50;;;7.44;100.00
20455;BME280;10386;54.314;10.022;2023-02-22T04:33:47;101091.50;;;7.44;100.00
20455;BME280;10386;54.314;10.022;2023-02-22T04:36:14;101097.25;;;7.38;100.00
20455;BME280;10386;54.314;10.022;2023-02-22T04:38:42;101100.97;;;7.35;100.00
20455;BME280;10386;54.314;10.022;2023-02-22T04:41:09;101096.47;;;7.36;100.00
20455;BME280;10386;54.314;10.022;2023-02-22T04:43:36;101101.13;;;7.32;100.00
20455;BME280;10386;54.314;10.022;2023-02-22T04:46:03;101095.09;;;7.27;100.00
20455;BME280;10386;54.314;10.022;2023-02-22T04:48:30;101108.16;;;7.19;100.00
20455;BME280;10386;54.314;10.022;2023-02-22T04:50:57;101097.19;;;7.22;100.00
20455;BME280;10386;54.314;10.022;2023-02-22T04:53:24;101095.50;;;7.20;100.00
20455;BME280;10386;54.314;10.022;2023-02-22T04:55:50;101101.84;;;7.19;100.00
20455;BME280;10386;54.314;10.022;2023-02-22T04:58:17;101092.66;;;7.23;100.00
20455;BME280;10386;54.314;10.022;2023-02-22T05:00:44;101095.50;;;7.37;100.00
20455;BME280;10386;54.314;10.022;2023-02-22T05:03:11;101092.31;;;7.46;100.00
20455;BME280;10386;54.314;10.022;2023-02-22T05:05:38;101085.38;;;7.40;100.00
20455;BME280;10386;54.314;10.022;2023-02-22T05:08:04;101088.19;;;7.39;100.00
20455;BME280;10386;54.314;10.022;2023-02-22T05:10:31;101081.84;;;7.40;100.00
20455;BME280;10386;54.314;10.022;2023-02-22T05:12:58;101087.47;;;7.35;100.00
20455;BME280;10386;54.314;10.022;2023-02-22T05:15:25;101091.13;;;7.34;100.00
20455;BME280;10386;54.314;10.022;2023-02-22T05:17:52;101080.78;;;7.42;100.00
20455;BME280;10386;54.314;10.022;2023-02-22T05:20:26;101072.59;;;7.44;100.00
20455;BME280;10386;54.314;10.022;2023-02-22T05:22:55;101070.59;;;7.47;100.00
20455;BME280;10386;54.314;10.022;2023-02-22T05:25:22;101074.88;;;7.51;100.00
20455;BME280;10386;54.314;10.022;2023-02-22T05:27:53;101073.06;;;7.52;100.00
20455;BME280;10386;54.314;10.022;2023-02-22T05:30:22;101070.19;;;7.55;100.00
20455;BME280;10386;54.314;10.022;2023-02-22T05:32:50;101071.13;;;7.54;100.00
20455;BME280;10386;54.314;10.022;2023-02-22T05:35:18;101080.38;;;7.50;100.00
20455;BME280;10386;54.314;10.022;2023-02-22T05:37:45;101076.00;;;7.47;100.00
20455;BME280;10386;54.314;10.022;2023-02-22T05:40:13;101077.91;;;7.45;100.00
20455;BME280;10386;54.314;10.022;2023-02-22T05:42:40;101087.22;;;7.40;100.00
20455;BME280;10386;54.314;10.022;2023-02-22T05:45:07;101083.31;;;7.45;100.00
20455;BME280;10386;54.314;10.022;2023-02-22T05:47:34;101076.31;;;7.41;100.00
20455;BME280;10386;54.314;10.022;2023-02-22T05:50:01;101089.03;;;7.39;100.00
20455;BME280;10386;54.314;10.022;2023-02-22T05:52:28;101091.47;;;7.28;100.00
20455;BME280;10386;54.314;10.022;2023-02-22T05:54:54;101084.13;;;7.30;100.00
20455;BME280;10386;54.314;10.022;2023-02-22T05:57:21;101080.19;;;7.20;100.00
20455;BME280;10386;54.314;10.022;2023-02-22T05:59:48;101077.25;;;7.25;100.00
20455;BME280;10386;54.314;10.022;2023-02-22T06:02:14;101078.56;;;7.33;100.00
20455;BME280;10386;54.314;10.022;2023-02-22T06:04:45;101078.69;;;7.32;100.00
20455;BME280;10386;54.314;10.022;2023-02-22T06:07:13;101078.25;;;7.39;100.00
20455;BME280;10386;54.314;10.022;2023-02-22T06:09:40;101082.78;;;7.39;100.00
20455;BME280;10386;54.314;10.022;2023-02-22T06:12:07;101078.75;;;7.30;100.00
20455;BME280;10386;54.314;10.022;2023-02-22T06:14:34;101081.22;;;7.35;100.00
20455;BME280;10386;54.314;10.022;2023-02-22T06:17:01;101081.44;;;7.30;100.00
20455;BME280;10386;54.314;10.022;2023-02-22T06:19:28;101076.16;;;7.44;100.00
20455;BME280;10386;54.314;10.022;2023-02-22T06:21:56;101073.72;;;7.40;100.00
20455;BME280;10386;54.314;10.022;2023-02-22T06:24:25;101073.13;;;7.50;100.00
20455;BME280;10386;54.314;10.022;2023-02-22T06:26:56;101069.72;;;7.47;100.00
20455;BME280;10386;54.314;10.022;2023-02-22T06:29:24;101072.66;;;7.42;100.00
20455;BME280;10386;54.314;10.022;2023-02-22T06:31:51;101072.44;;;7.47;100.00
20455;BME280;10386;54.314;10.022;2023-02-22T06:34:18;101071.38;;;7.49;100.00
20455;BME280;10386;54.314;10.022;2023-02-22T06:36:45;101061.19;;;7.54;100.00
20455;BME280;10386;54.314;10.022;2023-02-22T06:39:14;101070.13;;;7.39;100.00
20455;BME280;10386;54.314;10.022;2023-02-22T06:41:42;101064.16;;;7.50;100.00
20455;BME280;10386;54.314;10.022;2023-02-22T06:44:09;101067.72;;;7.50;100.00
20455;BME280;10386;54.314;10.022;2023-02-22T06:46:37;101063.91;;;7.54;100.00
20455;BME280;10386;54.314;10.022;2023-02-22T06:49:04;101065.28;;;7.61;100.00
20455;BME280;10386;54.314;10.022;2023-02-22T06:51:35;101062.38;;;7.81;100.00
20455;BME280;10386;54.314;10.022;2023-02-22T06:54:03;101059.41;;;7.86;100.00
20455;BME280;10386;54.314;10.022;2023-02-22T06:56:29;101063.16;;;7.83;100.00
20455;BME280;10386;54.314;10.022;2023-02-22T06:58:56;101070.81;;;7.91;100.00
20455;BME280;10386;54.314;10.022;2023-02-22T07:01:23;101066.56;;;7.87;100.00
20455;BME280;10386;54.314;10.022;2023-02-22T07:03:50;101068.56;;;7.83;100.00
20455;BME280;10386;54.314;10.022;2023-02-22T07:06:16;101076.50;;;7.86;100.00
20455;BME280;10386;54.314;10.022;2023-02-22T07:08:43;101079.81;;;7.91;100.00
20455;BME280;10386;54.314;10.022;2023-02-22T07:11:10;101076.69;;;7.83;100.00
20455;BME280;10386;54.314;10.022;2023-02-22T07:13:36;101079.22;;;7.86;100.00
20455;BME280;10386;54.314;10.022;2023-02-22T07:16:03;101090.47;;;7.94;100.00
20455;BME280;10386;54.314;10.022;2023-02-22T07:18:30;101090.19;;;7.99;100.00
20455;BME280;10386;54.314;10.022;2023-02-22T07:20:57;101090.78;;;8.04;100.00
20455;BME280;10386;54.314;10.022;2023-02-22T07:23:24;101090.91;;;8.02;100.00
20455;BME280;10386;54.314;10.022;2023-02-22T07:25:50;101093.59;;;8.02;100.00
20455;BME280;10386;54.314;10.022;2023-02-22T07:28:17;101102.56;;;8.03;100.00
20455;BME280;10386;54.314;10.022;2023-02-22T07:30:44;101100.16;;;8.14;100.00
20455;BME280;10386;54.314;10.022;2023-02-22T07:33:11;101114.44;;;8.00;100.00
20455;BME280;10386;54.314;10.022;2023-02-22T07:35:44;101099.28;;;8.13;100.00
20455;BME280;10386;54.314;10.022;2023-02-22T07:38:13;101110.88;;;8.15;100.00
20455;BME280;10386;54.314;10.022;2023-02-22T07:40:41;101117.25;;;8.14;100.00
20455;BME280;10386;54.314;10.022;2023-02-22T07:43:15;101122.94;;;8.25;100.00
20455;BME280;10386;54.314;10.022;2023-02-22T07:45:42;101123.44;;;8.16;100.00
20455;BME280;10386;54.314;10.022;2023-02-22T07:48:10;101124.25;;;8.18;100.00
20455;BME280;10386;54.314;10.022;2023-02-22T07:50:39;101129.41;;;8.23;100.00
20455;BME280;10386;54.314;10.022;2023-02-22T07:53:10;101135.16;;;8.32;100.00
20455;BME280;10386;54.314;10.022;2023-02-22T07:55:37;101137.31;;;8.41;100.00
20455;BME280;10386;54.314;10.022;2023-02-22T07:58:06;101145.00;;;8.33;100.00
20455;BME280;10386;54.314;10.022;2023-02-22T08:00:34;101145.19;;;8.30;100.00
20455;BME280;10386;54.314;10.022;2023-02-22T08:03:03;101147.22;;;8.26;100.00
20455;BME280;10386;54.314;10.022;2023-02-22T08:05:32;101149.63;;;8.31;100.00
20455;BME280;10386;54.314;10.022;2023-02-22T08:07:59;101156.53;;;8.36;100.00
20455;BME280;10386;54.314;10.022;2023-02-22T08:10:27;101150.34;;;8.34;100.00
20455;BME280;10386;54.314;10.022;2023-02-22T08:12:54;101154.69;;;8.37;100.00
20455;BME280;10386;54.314;10.022;2023-02-22T08:15:23;101151.56;;;8.29;100.00
20455;BME280;10386;54.314;10.022;2023-02-22T08:17:50;101153.72;;;8.38;100.00
20455;BME280;10386;54.314;10.022;2023-02-22T08:20:19;101149.03;;;8.41;100.00
20455;BME280;10386;54.314;10.022;2023-02-22T08:22:46;101157.22;;;8.40;100.00
20455;BME280;10386;54.314;10.022;2023-02-22T08:25:15;101155.22;;;8.28;100.00
20455;BME280;10386;54.314;10.022;2023-02-22T08:27:42;101155.66;;;8.36;100.00
20455;BME280;10386;54.314;10.022;2023-02-22T08:30:29;101152.16;;;8.49;100.00
20455;BME280;10386;54.314;10.022;2023-02-22T08:32:57;101151.75;;;8.57;100.00
20455;BME280;10386;54.314;10.022;2023-02-22T08:35:24;101155.84;;;8.48;100.00
20455;BME280;10386;54.314;10.022;2023-02-22T08:37:56;101155.91;;;8.47;100.00
20455;BME280;10386;54.314;10.022;2023-02-22T08:40:25;101156.25;;;8.56;100.00
20455;BME280;10386;54.314;10.022;2023-02-22T08:42:53;101146.94;;;8.46;100.00
20455;BME280;10386;54.314;10.022;2023-02-22T08:45:20;101145.00;;;8.48;100.00
20455;BME280;10386;54.314;10.022;2023-02-22T08:47:47;101152.78;;;8.54;100.00
20455;BME280;10386;54.314;10.022;2023-02-22T08:50:26;101146.41;;;8.55;100.00
20455;BME280;10386;54.314;10.022;2023-02-22T08:52:55;101152.59;;;8.57;100.00
20455;BME280;10386;54.314;10.022;2023-02-22T08:55:25;101150.59;;;8.45;100.00
20455;BME280;10386;54.314;10.022;2023-02-22T08:57:52;101151.63;;;8.58;100.00
20455;BME280;10386;54.314;10.022;2023-02-22T09:00:22;101148.06;;;8.58;100.00
20455;BME280;10386;54.314;10.022;2023-02-22T09:02:51;101146.94;;;8.62;100.00
20455;BME280;10386;54.314;10.022;2023-02-22T09:05:18;101155.28;;;8.73;100.00
20455;BME280;10386;54.314;10.022;2023-02-22T09:07:45;101152.75;;;8.70;100.00
20455;BME280;10386;54.314;10.022;2023-02-22T09:10:15;101154.22;;;8.75;100.00
20455;BME280;10386;54.314;10.022;2023-02-22T09:12:42;101151.09;;;8.67;100.00
20455;BME280;10386;54.314;10.022;2023-02-22T09:15:09;101154.50;;;8.71;100.00
20455;BME280;10386;54.314;10.022;2023-02-22T09:17:36;101150.91;;;8.70;100.00
20455;BME280;10386;54.314;10.022;2023-02-22T09:20:04;101157.88;;;8.90;100.00
20455;BME280;10386;54.314;10.022;2023-02-22T09:22:32;101152.81;;;8.84;100.00
20455;BME280;10386;54.314;10.022;2023-02-22T09:24:59;101159.19;;;8.98;100.00
20455;BME280;10386;54.314;10.022;2023-02-22T09:27:41;101156.97;;;9.05;100.00
20455;BME280;10386;54.314;10.022;2023-02-22T09:30:25;101154.31;;;9.33;100.00
20455;BME280;10386;54.314;10.022;2023-02-22T09:32:54;101158.09;;;9.30;100.00
20455;BME280;10386;54.314;10.022;2023-02-22T09:35:23;101153.28;;;9.49;100.00
20455;BME280;10386;54.314;10.022;2023-02-22T09:37:58;101150.50;;;9.51;100.00
20455;BME280;10386;54.314;10.022;2023-02-22T09:40:27;101154.66;;;9.56;100.00
20455;BME280;10386;54.314;10.022;2023-02-22T09:45:39;101171.63;;;9.59;100.00
20455;BME280;10386;54.314;10.022;2023-02-22T09:48:15;101161.84;;;9.71;100.00
20455;BME280;10386;54.314;10.022;2023-02-22T09:50:50;101172.69;;;9.71;100.00
20455;BME280;10386;54.314;10.022;2023-02-22T09:53:25;101178.41;;;9.80;100.00
20455;BME280;10386;54.314;10.022;2023-02-22T09:56:04;101179.56;;;9.62;100.00
20455;BME280;10386;54.314;10.022;2023-02-22T09:58:44;101180.28;;;9.80;100.00
20455;BME280;10386;54.314;10.022;2023-02-22T10:01:21;101176.59;;;9.95;100.00
20455;BME280;10386;54.314;10.022;2023-02-22T10:04:23;101192.56;;;9.99;100.00
20455;BME280;10386;54.314;10.022;2023-02-22T10:09:40;101202.63;;;9.97;100.00
20455;BME280;10386;54.314;10.022;2023-02-22T10:17:49;101218.13;;;9.81;100.00
20455;BME280;10386;54.314;10.022;2023-02-22T10:20:50;101213.59;;;9.96;100.00
20455;BME280;10386;54.314;10.022;2023-02-22T10:28:41;101218.34;;;10.06;100.00
20455;BME280;10386;54.314;10.022;2023-02-22T10:31:37;101222.91;;;10.20;100.00
20455;BME280;10386;54.314;10.022;2023-02-22T10:34:04;101217.09;;;10.26;100.00
20455;BME280;10386;54.314;10.022;2023-02-22T10:36:33;101228.72;;;10.42;100.00
20455;BME280;10386;54.314;10.022;2023-02-22T10:41:43;101221.13;;;10.61;100.00
20455;BME280;10386;54.314;10.022;2023-02-22T10:44:14;101239.50;;;10.43;100.00
20455;BME280;10386;54.314;10.022;2023-02-22T10:46:43;101242.03;;;10.32;100.00
20455;BME280;10386;54.314;10.022;2023-02-22T10:49:21;101244.22;;;10.40;100.00
20455;BME280;10386;54.314;10.022;2023-02-22T10:52:00;101243.25;;;10.41;100.00
20455;BME280;10386;54.314;10.022;2023-02-22T10:54:31;101242.41;;;10.40;100.00
20455;BME280;10386;54.314;10.022;2023-02-22T10:56:59;101236.41;;;10.21;100.00
20455;BME280;10386;54.314;10.022;2023-02-22T10:59:33;101236.00;;;10.41;100.00
20455;BME280;10386;54.314;10.022;2023-02-22T11:02:12;101223.41;;;10.40;100.00
20455;BME280;10386;54.314;10.022;2023-02-22T11:04:49;101229.09;;;10.50;100.00
20455;BME280;10386;54.314;10.022;2023-02-22T11:07:28;101232.13;;;10.31;100.00
20455;BME280;10386;54.314;10.022;2023-02-22T11:10:06;101228.06;;;10.38;100.00
20455;BME280;10386;54.314;10.022;2023-02-22T11:12:41;101232.53;;;10.39;100.00
20455;BME280;10386;54.314;10.022;2023-02-22T11:17:50;101239.59;;;10.28;100.00
20455;BME280;10386;54.314;10.022;2023-02-22T11:20:23;101234.28;;;10.26;100.00
20455;BME280;10386;54.314;10.022;2023-02-22T11:22:58;101232.31;;;10.42;100.00
20455;BME280;10386;54.314;10.022;2023-02-22T11:25:31;101234.72;;;10.33;100.00
20455;BME280;10386;54.314;10.022;2023-02-22T11:28:21;101223.97;;;10.45;100.00
20455;BME280;10386;54.314;10.022;2023-02-22T11:31:07;101210.75;;;10.67;100.00
20455;BME280;10386;54.314;10.022;2023-02-22T11:33:35;101234.03;;;10.57;100.00
20455;BME280;10386;54.314;10.022;2023-02-22T11:36:04;101234.25;;;10.54;100.00
20455;BME280;10386;54.314;10.022;2023-02-22T11:38:36;101222.59;;;10.66;100.00
20455;BME280;10386;54.314;10.022;2023-02-22T11:43:46;101218.28;;;10.76;100.00
20455;BME280;10386;54.314;10.022;2023-02-22T11:46:17;101228.13;;;10.91;100.00
20455;BME280;10386;54.314;10.022;2023-02-22T11:49:04;101228.97;;;10.65;100.00
20455;BME280;10386;54.314;10.022;2023-02-22T12:00:11;101224.56;;;10.91;100.00
20455;BME280;10386;54.314;10.022;2023-02-22T12:03:00;101237.47;;;10.87;100.00
20455;BME280;10386;54.314;10.022;2023-02-22T12:05:52;101230.75;;;10.93;100.00
20455;BME280;10386;54.314;10.022;2023-02-22T12:19:01;101229.22;;;10.89;100.00
20455;BME280;10386;54.314;10.022;2023-02-22T12:21:35;101235.50;;;10.89;100.00
20455;BME280;10386;54.314;10.022;2023-02-22T12:24:11;101244.59;;;10.76;100.00
20455;BME280;10386;54.314;10.022;2023-02-22T12:26:52;101251.88;;;11.01;100.00
20455;BME280;10386;54.314;10.022;2023-02-22T12:29:35;101241.50;;;10.94;100.00
20455;BME280;10386;54.314;10.022;2023-02-22T12:34:37;101244.97;;;11.10;100.00
20455;BME280;10386;54.314;10.022;2023-02-22T12:37:19;101245.19;;;11.07;100.00
20455;BME280;10386;54.314;10.022;2023-02-22T12:40:20;101255.56;;;11.00;100.00
20455;BME280;10386;54.314;10.022;2023-02-22T12:42:59;101249.56;;;10.96;100.00
20455;BME280;10386;54.314;10.022;2023-02-22T12:48:15;101244.56;;;11.16;100.00
20455;BME280;10386;54.314;10.022;2023-02-22T12:50:46;101252.94;;;10.99;100.00
20455;BME280;10386;54.314;10.022;2023-02-22T12:53:34;101248.25;;;10.89;100.00
20455;BME280;10386;54.314;10.022;2023-02-22T12:56:23;101250.06;;;10.88;100.00
20455;BME280;10386;54.314;10.022;2023-02-22T12:59:00;101242.53;;;10.79;100.00
20455;BME280;10386;54.314;10.022;2023-02-22T13:01:35;101239.16;;;10.76;100.00
20455;BME280;10386;54.314;10.022;2023-02-22T13:04:03;101238.22;;;10.89;100.00
20455;BME280;10386;54.314;10.022;2023-02-22T13:07:00;101239.44;;;10.71;100.00
20455;BME280;10386;54.314;10.022;2023-02-22T13:13:08;101241.63;;;10.93;100.00
20455;BME280;10386;54.314;10.022;2023-02-22T13:18:39;101235.84;;;10.85;100.00
20455;BME280;10386;54.314;10.022;2023-02-22T13:21:28;101231.22;;;10.99;100.00
20455;BME280;10386;54.314;10.022;2023-02-22T13:24:05;101219.94;;;10.79;100.00
20455;BME280;10386;54.314;10.022;2023-02-22T13:26:58;101226.31;;;10.92;100.00
20455;BME280;10386;54.314;10.022;2023-02-22T13:29:32;101226.72;;;11.12;100.00
20455;BME280;10386;54.314;10.022;2023-02-22T13:32:19;101222.56;;;11.06;100.00
20455;BME280;10386;54.314;10.022;2023-02-22T13:43:15;101234.38;;;10.79;100.00
20455;BME280;10386;54.314;10.022;2023-02-22T13:49:28;101231.63;;;10.93;100.00
20455;BME280;10386;54.314;10.022;2023-02-22T13:52:08;101227.06;;;10.94;100.00
20455;BME280;10386;54.314;10.022;2023-02-22T13:54:50;101226.38;;;10.90;100.00
20455;BME280;10386;54.314;10.022;2023-02-22T13:57:30;101230.56;;;10.96;100.00
20455;BME280;10386;54.314;10.022;2023-02-22T14:08:03;101225.69;;;11.00;100.00
20455;BME280;10386;54.314;10.022;2023-02-22T14:13:10;101219.06;;;11.04;100.00
20455;BME280;10386;54.314;10.022;2023-02-22T14:18:30;101224.50;;;11.04;100.00
20455;BME280;10386;54.314;10.022;2023-02-22T14:21:16;101228.69;;;10.96;100.00
20455;BME280;10386;54.314;10.022;2023-02-22T14:23:47;101226.19;;;10.93;100.00
20455;BME280;10386;54.314;10.022;2023-02-22T14:26:16;101233.97;;;10.85;100.00
20455;BME280;10386;54.314;10.022;2023-02-22T14:34:17;101218.69;;;10.70;100.00
20455;BME280;10386;54.314;10.022;2023-02-22T14:36:51;101218.28;;;10.76;100.00
20455;BME280;10386;54.314;10.022;2023-02-22T14:42:09;101221.78;;;10.78;100.00
20455;BME280;10386;54.314;10.022;2023-02-22T14:44:51;101222.19;;;10.72;100.00
20455;BME280;10386;54.314;10.022;2023-02-22T14:47:26;101218.28;;;10.76;100.00
20455;BME280;10386;54.314;10.022;2023-02-22T14:50:07;101211.38;;;10.85;100.00
20455;BME280;10386;54.314;10.022;2023-02-22T14:52:39;101206.44;;;10.77;100.00
20455;BME280;10386;54.314;10.022;2023-02-22T14:55:11;101207.13;;;10.81;100.00